createdAt,value
2023-05-05T00:01:02.487Z,7.55
2023-05-05T00:03:29.723Z,8.85
2023-05-05T00:05:56.935Z,9.43
2023-05-05T00:08:23.875Z,7.50
2023-05-05T00:10:52.973Z,8.20
2023-05-05T00:13:20.982Z,7.50
2023-05-05T00:15:50.055Z,9.25
2023-05-05T00:18:17.972Z,11.50
2023-05-05T00:20:47.077Z,11.75
2023-05-05T00:23:15.044Z,13.27
2023-05-05T00:25:42.337Z,14.45
2023-05-05T00:28:09.273Z,18.88
2023-05-05T00:30:36.547Z,16.05
2023-05-05T00:33:03.508Z,19.60
2023-05-05T00:35:30.351Z,17.27
2023-05-05T00:37:57.505Z,16.75
2023-05-05T00:40:25.397Z,16.50
2023-05-05T00:42:52.594Z,15.82
2023-05-05T00:45:20.145Z,18.10
2023-05-05T00:47:52.869Z,19.35
2023-05-05T00:50:30.780Z,16.85
2023-05-05T00:53:02.281Z,15.43
2023-05-05T00:55:33.784Z,16.45
2023-05-05T00:58:03.185Z,13.77
2023-05-05T01:00:30.226Z,14.30
2023-05-05T01:02:58.140Z,12.98
2023-05-05T01:05:27.162Z,11.90
2023-05-05T01:08:10.614Z,13.88
2023-05-05T01:10:55.451Z,11.52
2023-05-05T01:13:30.170Z,9.73
2023-05-05T01:16:20.315Z,10.00
2023-05-05T01:19:21.760Z,12.10
2023-05-05T01:21:52.758Z,9.75
2023-05-05T01:24:44.563Z,8.77
2023-05-05T01:27:27.377Z,8.35
2023-05-05T01:30:03.728Z,9.25
2023-05-05T01:32:34.298Z,6.78
2023-05-05T01:35:14.616Z,10.52
2023-05-05T01:37:51.076Z,7.93
2023-05-05T01:40:23.068Z,8.88
2023-05-05T01:42:51.516Z,5.85
2023-05-05T01:45:20.366Z,13.45
2023-05-05T01:47:47.906Z,5.57
2023-05-05T01:50:15.306Z,6.30
2023-05-05T01:52:43.247Z,9.68
2023-05-05T01:55:11.323Z,8.43
2023-05-05T01:57:39.708Z,9.10
2023-05-05T02:00:07.854Z,7.03
2023-05-05T02:02:44.664Z,5.85
2023-05-05T02:05:13.034Z,5.53
2023-05-05T02:07:40.037Z,5.88
2023-05-05T02:10:08.376Z,9.48
2023-05-05T02:12:37.467Z,10.75
2023-05-05T02:15:05.343Z,10.88
2023-05-05T02:17:32.346Z,6.72
2023-05-05T02:20:01.370Z,11.10
2023-05-05T02:22:28.379Z,11.88
2023-05-05T02:24:55.559Z,9.73
2023-05-05T02:27:23.452Z,8.50
2023-05-05T02:29:58.295Z,7.22
2023-05-05T02:32:32.264Z,9.10
2023-05-05T02:35:06.118Z,5.55
2023-05-05T02:37:34.110Z,7.63
2023-05-05T02:40:04.643Z,8.30
2023-05-05T02:42:39.511Z,6.43
2023-05-05T02:45:12.391Z,9.20
2023-05-05T02:47:42.476Z,6.35
2023-05-05T02:50:10.324Z,6.05
2023-05-05T02:52:42.460Z,9.05
2023-05-05T02:55:10.658Z,6.82
2023-05-05T02:57:57.909Z,12.13
2023-05-05T03:00:30.560Z,6.30
2023-05-05T03:03:14.300Z,12.95
2023-05-05T03:05:47.674Z,5.28
2023-05-05T03:08:21.039Z,7.57
2023-05-05T03:11:00.034Z,7.22
2023-05-05T03:13:28.596Z,6.47
2023-05-05T03:15:58.185Z,5.38
2023-05-05T03:18:26.848Z,6.05
2023-05-05T03:21:00.037Z,7.85
2023-05-05T03:23:27.218Z,7.88
2023-05-05T03:25:58.060Z,8.75
2023-05-05T03:28:32.433Z,5.72
2023-05-05T03:31:04.143Z,8.77
2023-05-05T03:33:33.543Z,6.43
2023-05-05T03:36:01.036Z,8.70
2023-05-05T03:38:28.079Z,14.30
2023-05-05T03:40:55.989Z,9.80
2023-05-05T03:43:25.729Z,9.98
2023-05-05T03:45:52.687Z,11.13
2023-05-05T03:48:19.824Z,10.32
2023-05-05T03:50:47.155Z,13.90
2023-05-05T03:53:15.575Z,10.38
2023-05-05T03:55:43.317Z,14.05
2023-05-05T03:58:11.271Z,10.63
2023-05-05T04:00:38.228Z,12.35
2023-05-05T04:03:05.456Z,15.05
2023-05-05T04:05:32.682Z,18.67
2023-05-05T04:07:59.941Z,14.35
2023-05-05T04:10:27.016Z,15.70
2023-05-05T04:12:54.448Z,15.80
2023-05-05T04:15:21.355Z,21.77
2023-05-05T04:17:48.367Z,20.02
2023-05-05T04:20:15.514Z,20.20
2023-05-05T04:22:42.352Z,19.35
2023-05-05T04:25:10.395Z,20.80
2023-05-05T04:27:38.118Z,16.83
2023-05-05T04:30:07.067Z,20.85
2023-05-05T04:32:37.002Z,24.90
2023-05-05T04:35:05.320Z,22.67
2023-05-05T04:37:32.314Z,19.70
2023-05-05T04:39:59.840Z,29.17
2023-05-05T04:42:27.781Z,22.35
2023-05-05T04:44:55.191Z,27.50
2023-05-05T04:47:22.871Z,26.42
2023-05-05T04:49:51.193Z,21.30
2023-05-05T04:52:18.625Z,29.25
2023-05-05T04:54:45.422Z,24.33
2023-05-05T04:57:12.431Z,27.90
2023-05-05T04:59:39.300Z,26.13
2023-05-05T05:02:06.647Z,30.95
2023-05-05T05:04:33.839Z,29.05
2023-05-05T05:07:01.801Z,28.27
2023-05-05T05:09:28.864Z,31.73
2023-05-05T05:12:01.058Z,33.33
2023-05-05T05:14:28.238Z,31.05
2023-05-05T05:16:55.436Z,31.48
2023-05-05T05:19:24.198Z,30.88
2023-05-05T05:21:51.818Z,26.27
2023-05-05T05:24:19.021Z,26.50
2023-05-05T05:26:46.610Z,30.60
2023-05-05T05:29:13.620Z,29.58
2023-05-05T05:31:40.566Z,29.02
2023-05-05T05:34:08.465Z,32.97
2023-05-05T05:36:36.516Z,27.10
2023-05-05T05:39:03.651Z,30.05
2023-05-05T05:41:30.848Z,31.45
2023-05-05T05:43:58.036Z,27.83
2023-05-05T05:46:25.681Z,31.30
2023-05-05T05:48:53.301Z,30.17
2023-05-05T05:51:20.928Z,28.17
2023-05-05T05:53:48.815Z,25.15
2023-05-05T05:56:15.834Z,28.33
2023-05-05T05:58:43.668Z,28.90
2023-05-05T06:01:11.323Z,25.60
2023-05-05T06:03:38.373Z,25.55
2023-05-05T06:06:07.566Z,24.65
2023-05-05T06:08:34.542Z,23.70
2023-05-05T06:11:01.605Z,21.10
2023-05-05T06:13:29.299Z,20.13
2023-05-05T06:15:56.529Z,24.15
2023-05-05T06:18:23.581Z,20.75
2023-05-05T06:20:52.543Z,24.23
2023-05-05T06:23:22.233Z,19.23
2023-05-05T06:25:55.791Z,17.15
2023-05-05T06:28:22.789Z,18.23
2023-05-05T06:30:49.654Z,20.75
2023-05-05T06:33:16.726Z,21.33
2023-05-05T06:35:43.567Z,18.50
2023-05-05T06:38:10.769Z,18.30
2023-05-05T06:40:37.620Z,17.33
2023-05-05T06:43:04.764Z,15.90
2023-05-05T06:45:36.502Z,19.02
2023-05-05T06:48:03.438Z,14.90
2023-05-05T06:50:30.451Z,14.13
2023-05-05T06:52:57.314Z,8.93
2023-05-05T06:55:25.048Z,11.43
2023-05-05T06:57:52.001Z,11.07
2023-05-05T07:00:19.662Z,11.15
2023-05-05T07:02:47.711Z,12.65
2023-05-05T07:05:14.781Z,10.13
2023-05-05T07:07:54.163Z,7.97
2023-05-05T07:10:22.677Z,7.60
2023-05-05T07:12:50.063Z,7.75
2023-05-05T07:15:27.499Z,5.57
2023-05-05T07:17:56.675Z,5.72
2023-05-05T07:20:24.288Z,6.10
2023-05-05T07:22:51.481Z,6.07
2023-05-05T07:25:18.500Z,5.05
2023-05-05T07:27:45.493Z,4.05
2023-05-05T07:30:15.589Z,5.40
2023-05-05T07:32:46.073Z,4.70
2023-05-05T07:35:13.211Z,4.18
2023-05-05T07:37:40.321Z,4.30
2023-05-05T07:40:08.342Z,3.75
2023-05-05T07:42:35.521Z,3.17
2023-05-05T07:45:02.476Z,4.63
2023-05-05T07:47:29.380Z,5.82
2023-05-05T07:49:57.337Z,3.50
2023-05-05T07:52:37.069Z,2.97
2023-05-05T07:55:11.254Z,5.35
2023-05-05T07:57:38.822Z,8.13
2023-05-05T08:00:06.633Z,5.57
2023-05-05T08:02:39.562Z,2.15
2023-05-05T08:05:07.959Z,6.78
2023-05-05T08:07:36.887Z,3.80
2023-05-05T08:10:04.238Z,4.32
2023-05-05T08:12:31.367Z,4.68
2023-05-05T08:14:58.287Z,2.58
2023-05-05T08:17:27.200Z,3.08
2023-05-05T08:19:54.345Z,1.90
2023-05-05T08:22:24.159Z,3.92
2023-05-05T08:24:51.064Z,1.90
2023-05-05T08:27:17.894Z,3.55
2023-05-05T08:29:44.890Z,3.65
2023-05-05T08:32:11.728Z,4.20
2023-05-05T08:34:38.549Z,3.55
2023-05-05T08:37:05.639Z,3.10
2023-05-05T08:39:32.461Z,3.28
2023-05-05T08:41:59.525Z,2.47
2023-05-05T08:44:27.371Z,1.80
2023-05-05T08:46:55.210Z,4.00
2023-05-05T08:49:22.251Z,2.40
2023-05-05T08:51:50.025Z,1.40
2023-05-05T08:54:20.414Z,2.33
2023-05-05T08:56:51.104Z,2.70
2023-05-05T08:59:19.235Z,4.72
2023-05-05T09:01:46.239Z,3.13
2023-05-05T09:04:13.340Z,3.13
2023-05-05T09:06:40.683Z,4.03
2023-05-05T09:09:08.562Z,3.63
2023-05-05T09:11:35.952Z,2.65
2023-05-05T09:14:03.260Z,2.83
2023-05-05T09:16:30.411Z,2.60
2023-05-05T09:19:04.596Z,2.17
2023-05-05T09:21:32.439Z,4.60
2023-05-05T09:24:08.858Z,2.60
2023-05-05T09:26:38.102Z,1.77
2023-05-05T09:29:06.451Z,4.05
2023-05-05T09:31:34.721Z,2.55
2023-05-05T09:34:01.726Z,1.45
2023-05-05T09:36:48.095Z,1.35
2023-05-05T09:39:19.478Z,2.17
2023-05-05T09:41:47.102Z,3.38
2023-05-05T09:44:16.976Z,2.50
2023-05-05T09:46:51.691Z,1.75
2023-05-05T09:49:23.564Z,3.50
2023-05-05T09:51:51.865Z,5.85
2023-05-05T09:54:26.884Z,1.23
2023-05-05T09:56:54.033Z,4.57
2023-05-05T09:59:21.557Z,1.00
2023-05-05T10:01:49.888Z,1.73
2023-05-05T10:04:24.677Z,4.25
2023-05-05T10:06:51.715Z,1.67
2023-05-05T10:09:18.559Z,3.78
2023-05-05T10:11:47.279Z,1.67
2023-05-05T10:14:18.916Z,3.10
2023-05-05T10:16:49.098Z,1.45
2023-05-05T10:19:17.377Z,1.13
2023-05-05T10:21:54.288Z,1.75
2023-05-05T10:24:24.205Z,2.78
2023-05-05T10:26:52.199Z,1.67
2023-05-05T10:29:28.414Z,2.53
2023-05-05T10:31:57.211Z,3.00
2023-05-05T10:34:29.755Z,2.60
2023-05-05T10:36:59.893Z,3.45
2023-05-05T10:39:26.835Z,3.33
2023-05-05T10:41:54.082Z,4.90
2023-05-05T10:44:21.441Z,1.35
2023-05-05T10:46:48.478Z,2.08
2023-05-05T10:49:42.767Z,2.65
2023-05-05T10:52:26.348Z,6.32
2023-05-05T10:55:05.297Z,1.85
2023-05-05T10:57:32.748Z,2.40
2023-05-05T10:59:59.937Z,3.28
2023-05-05T11:02:28.315Z,1.88
2023-05-05T11:05:04.490Z,1.67
2023-05-05T11:07:32.256Z,2.15
2023-05-05T11:10:03.847Z,3.42
2023-05-05T11:12:32.466Z,2.08
2023-05-05T11:15:24.472Z,3.65
2023-05-05T11:17:51.532Z,2.97
2023-05-05T11:20:24.911Z,4.03
2023-05-05T11:23:04.384Z,3.17
2023-05-05T11:25:36.351Z,3.60
2023-05-05T11:28:25.649Z,5.50
2023-05-05T11:30:58.984Z,2.50
2023-05-05T11:33:31.710Z,3.05
2023-05-05T11:38:56.862Z,3.20
2023-05-05T11:41:33.517Z,4.60
2023-05-05T11:44:14.042Z,1.90
2023-05-05T11:46:44.280Z,3.65
2023-05-05T11:49:11.213Z,5.68
2023-05-05T11:51:38.213Z,4.40
2023-05-05T11:54:05.453Z,3.85
2023-05-05T11:56:32.328Z,4.20
2023-05-05T11:59:10.263Z,3.63
2023-05-05T12:01:41.581Z,3.22
2023-05-05T12:04:12.368Z,3.53
2023-05-05T12:06:40.072Z,6.40
2023-05-05T12:09:11.942Z,4.68
2023-05-05T12:11:54.569Z,5.72
2023-05-05T12:14:22.361Z,5.53
2023-05-05T12:17:03.170Z,8.93
2023-05-05T12:19:33.436Z,6.60
2023-05-05T12:22:04.702Z,6.85
2023-05-05T12:24:31.922Z,6.50
2023-05-05T12:27:09.330Z,8.35
2023-05-05T12:29:36.195Z,8.27
2023-05-05T12:32:03.941Z,7.85
2023-05-05T12:34:31.942Z,7.40
2023-05-05T12:36:59.044Z,8.18
2023-05-05T12:39:38.346Z,8.32
2023-05-05T12:42:06.474Z,9.77
2023-05-05T12:44:37.481Z,6.85
2023-05-05T12:47:05.076Z,12.35
2023-05-05T12:49:34.584Z,31.38
2023-05-05T12:52:01.714Z,30.30
2023-05-05T12:54:31.426Z,17.65
2023-05-05T12:56:58.897Z,14.25
2023-05-05T12:59:25.695Z,14.57
2023-05-05T13:01:56.488Z,12.73
2023-05-05T13:04:25.260Z,20.63
2023-05-05T13:07:11.826Z,13.65
2023-05-05T13:09:39.139Z,15.02
2023-05-05T13:12:08.361Z,14.93
2023-05-05T13:14:36.695Z,14.02
2023-05-05T13:17:03.781Z,22.05
2023-05-05T13:20:28.511Z,38.60
2023-05-05T13:23:54.802Z,18.83
2023-05-05T13:26:28.873Z,16.23
2023-05-05T13:28:56.254Z,18.77
2023-05-05T13:31:23.367Z,15.70
2023-05-05T13:33:51.561Z,21.23
2023-05-05T13:36:18.591Z,17.88
2023-05-05T13:38:46.327Z,19.45
2023-05-05T13:41:13.141Z,21.88
2023-05-05T13:43:40.422Z,30.35
2023-05-05T13:46:19.603Z,22.95
2023-05-05T13:48:47.694Z,23.95
2023-05-05T13:51:16.502Z,24.83
2023-05-05T13:53:46.908Z,25.85
2023-05-05T13:56:14.470Z,17.50
2023-05-05T13:58:42.553Z,20.23
2023-05-05T14:01:10.651Z,15.40
2023-05-05T14:03:39.635Z,13.35
2023-05-05T14:06:07.572Z,16.83
2023-05-05T14:08:34.812Z,17.88
2023-05-05T14:11:03.279Z,13.48
2023-05-05T14:13:30.693Z,13.38
2023-05-05T14:15:58.514Z,11.55
2023-05-05T14:18:26.268Z,12.52
2023-05-05T14:20:53.292Z,12.80
2023-05-05T14:23:20.489Z,12.07
2023-05-05T14:25:47.768Z,11.93
2023-05-05T14:28:14.993Z,11.13
2023-05-05T14:30:42.088Z,14.80
2023-05-05T14:33:09.695Z,7.97
2023-05-05T14:35:36.662Z,9.95
2023-05-05T14:38:03.816Z,8.90
2023-05-05T14:40:31.360Z,8.80
2023-05-05T14:42:58.678Z,10.20
2023-05-05T14:45:26.470Z,9.40
2023-05-05T14:47:53.733Z,5.95
2023-05-05T14:50:20.845Z,5.20
2023-05-05T14:52:47.931Z,5.90
2023-05-05T14:55:16.342Z,5.72
2023-05-05T14:57:43.272Z,4.63
2023-05-05T15:00:11.064Z,6.60
2023-05-05T15:02:38.861Z,6.13
2023-05-05T15:05:06.544Z,7.82
2023-05-05T15:07:33.522Z,6.50
2023-05-05T15:10:00.371Z,7.82
2023-05-05T15:12:27.296Z,7.22
2023-05-05T15:14:55.652Z,7.28
2023-05-05T15:17:22.748Z,8.13
2023-05-05T15:19:49.670Z,8.07
2023-05-05T15:22:16.617Z,5.85
2023-05-05T15:24:43.488Z,9.55
2023-05-05T15:27:10.379Z,10.00
2023-05-05T15:29:37.402Z,8.55
2023-05-05T15:32:04.454Z,11.98
2023-05-05T15:34:31.807Z,9.75
2023-05-05T15:36:58.846Z,9.93
2023-05-05T15:39:44.128Z,7.60
2023-05-05T15:42:11.151Z,8.68
2023-05-05T15:44:38.094Z,8.63
2023-05-05T15:47:05.593Z,8.00
2023-05-05T15:49:32.479Z,7.75
2023-05-05T15:51:59.478Z,6.47
2023-05-05T15:54:26.320Z,8.48
2023-05-05T15:56:53.280Z,8.45
2023-05-05T15:59:20.182Z,9.55
2023-05-05T16:01:47.524Z,8.65
2023-05-05T16:04:14.802Z,9.30
2023-05-05T16:06:41.749Z,7.90
2023-05-05T16:09:09.181Z,10.25
2023-05-05T16:11:37.371Z,12.75
2023-05-05T16:14:04.453Z,15.20
2023-05-05T16:16:31.435Z,14.77
2023-05-05T16:18:58.436Z,16.70
2023-05-05T16:21:25.860Z,19.13
2023-05-05T16:23:52.790Z,16.10
2023-05-05T16:26:19.786Z,18.23
2023-05-05T16:28:46.908Z,22.95
2023-05-05T16:31:13.864Z,17.77
2023-05-05T16:33:43.809Z,19.52
2023-05-05T16:36:12.650Z,18.65
2023-05-05T16:38:40.242Z,17.98
2023-05-05T16:41:07.296Z,21.27
2023-05-05T16:43:34.366Z,18.55
2023-05-05T16:46:01.418Z,17.58
2023-05-05T16:48:28.319Z,17.23
2023-05-05T16:50:58.587Z,17.15
2023-05-05T16:53:25.662Z,18.70
2023-05-05T16:55:53.511Z,21.05
2023-05-05T16:58:21.417Z,16.83
2023-05-05T17:00:49.528Z,17.50
2023-05-05T17:03:17.401Z,17.27
2023-05-05T17:05:46.161Z,18.42
2023-05-05T17:08:14.828Z,19.70
2023-05-05T17:10:45.623Z,15.52
2023-05-05T17:13:14.016Z,15.85
2023-05-05T17:15:41.634Z,15.43
2023-05-05T17:18:08.742Z,17.05
2023-05-05T17:20:36.521Z,19.52
2023-05-05T17:23:03.647Z,13.15
2023-05-05T17:25:31.079Z,18.88
2023-05-05T17:27:57.946Z,16.80
2023-05-05T17:30:24.886Z,17.13
2023-05-05T17:32:51.790Z,15.90
2023-05-05T17:35:18.917Z,18.48
2023-05-05T17:37:46.381Z,15.35
2023-05-05T17:40:13.529Z,14.07
2023-05-05T17:42:40.667Z,18.85
2023-05-05T17:45:08.617Z,19.25
2023-05-05T17:47:36.311Z,15.77
2023-05-05T17:50:03.575Z,18.58
2023-05-05T17:52:30.427Z,19.27
2023-05-05T17:54:57.234Z,16.98
2023-05-05T17:57:24.198Z,17.92
2023-05-05T17:59:52.087Z,17.52
2023-05-05T18:02:19.484Z,16.60
2023-05-05T18:04:46.611Z,21.35
2023-05-05T18:07:14.821Z,17.95
2023-05-05T18:09:42.427Z,16.80
2023-05-05T18:12:09.892Z,16.48
2023-05-05T18:14:37.136Z,13.80
2023-05-05T18:17:04.929Z,16.38
2023-05-05T18:19:32.145Z,21.45
2023-05-05T18:21:59.220Z,19.38
2023-05-05T18:24:26.685Z,19.85
2023-05-05T18:26:53.540Z,18.02
2023-05-05T18:29:22.210Z,17.17
2023-05-05T18:31:53.043Z,19.02
2023-05-05T18:34:21.019Z,21.58
2023-05-05T18:36:50.145Z,19.30
2023-05-05T18:39:17.947Z,22.13
2023-05-05T18:41:44.905Z,21.50
2023-05-05T18:44:11.914Z,20.25
2023-05-05T18:46:38.834Z,21.67
2023-05-05T18:49:05.794Z,23.58
2023-05-05T18:51:32.832Z,22.02
2023-05-05T18:54:01.045Z,19.48
2023-05-05T18:56:28.429Z,22.50
2023-05-05T18:58:55.772Z,20.60
2023-05-05T19:01:23.396Z,20.83
2023-05-05T19:03:50.366Z,20.35
2023-05-05T19:06:17.846Z,25.75
2023-05-05T19:08:46.079Z,24.80
2023-05-05T19:11:14.874Z,22.73
2023-05-05T19:13:42.858Z,24.60
2023-05-05T19:16:11.509Z,23.20
2023-05-05T19:18:39.231Z,22.92
2023-05-05T19:21:06.179Z,21.45
2023-05-05T19:23:33.644Z,26.90
2023-05-05T19:26:00.803Z,22.98
2023-05-05T19:28:27.592Z,24.20
2023-05-05T19:30:54.548Z,21.35
2023-05-05T19:33:21.535Z,23.15
2023-05-05T19:35:48.716Z,23.95
2023-05-05T19:38:15.908Z,22.42
2023-05-05T19:40:43.326Z,19.60
2023-05-05T19:43:10.424Z,23.58
2023-05-05T19:45:37.345Z,22.15
2023-05-05T19:48:04.619Z,23.83
2023-05-05T19:50:31.824Z,23.10
2023-05-05T19:52:58.858Z,26.02
2023-05-05T19:55:26.007Z,22.95
2023-05-05T19:57:53.010Z,159.82
2023-05-05T20:00:20.032Z,25.20
2023-05-05T20:02:49.202Z,23.40
2023-05-05T20:05:17.626Z,24.08
2023-05-05T20:07:46.770Z,26.85
2023-05-05T20:10:13.961Z,20.88
2023-05-05T20:12:48.473Z,24.00
2023-05-05T20:15:18.919Z,26.75
2023-05-05T20:17:47.016Z,29.73
2023-05-05T20:20:19.095Z,28.23
2023-05-05T20:22:46.725Z,29.23
2023-05-05T20:25:16.216Z,30.60
2023-05-05T20:27:43.961Z,27.10
2023-05-05T20:30:12.298Z,25.45
2023-05-05T20:32:39.591Z,25.33
2023-05-05T20:35:07.468Z,25.65
2023-05-05T20:37:34.373Z,24.02
2023-05-05T20:40:01.287Z,23.38
2023-05-05T20:42:29.896Z,22.05
2023-05-05T20:44:57.076Z,25.77
2023-05-05T20:47:24.509Z,24.35
2023-05-05T20:49:52.689Z,64.15
2023-05-05T20:52:19.709Z,25.90
2023-05-05T20:54:46.750Z,21.77
2023-05-05T20:57:13.602Z,21.48
2023-05-05T20:59:40.548Z,30.77
2023-05-05T21:02:07.564Z,29.83
2023-05-05T21:04:34.697Z,27.02
2023-05-05T21:07:01.780Z,32.97
2023-05-05T21:09:29.029Z,27.13
2023-05-05T21:11:55.876Z,26.75
2023-05-05T21:14:23.492Z,25.52
2023-05-05T21:16:50.491Z,26.02
2023-05-05T21:19:17.446Z,23.88
2023-05-05T21:21:44.496Z,24.98
2023-05-05T21:24:13.126Z,24.20
2023-05-05T21:26:44.502Z,25.30
2023-05-05T21:29:11.927Z,24.48
2023-05-05T21:31:38.961Z,25.95
2023-05-05T21:34:05.966Z,20.65
2023-05-05T21:36:34.005Z,29.38
2023-05-05T21:39:01.042Z,24.38
2023-05-05T21:41:28.331Z,27.45
2023-05-05T21:43:55.988Z,26.20
2023-05-05T21:46:23.107Z,27.15
2023-05-05T21:48:50.486Z,23.88
2023-05-05T21:51:17.668Z,26.02
2023-05-05T21:53:44.708Z,25.75
2023-05-05T21:56:11.603Z,24.25
2023-05-05T21:58:38.748Z,24.75
2023-05-05T22:01:05.831Z,24.35
2023-05-05T22:03:35.145Z,21.60
2023-05-05T22:06:02.107Z,24.90
2023-05-05T22:08:29.180Z,23.15
2023-05-05T22:10:56.050Z,23.67
2023-05-05T22:13:23.006Z,28.60
2023-05-05T22:15:50.456Z,27.13
2023-05-05T22:18:17.414Z,26.63
2023-05-05T22:20:44.351Z,25.80
2023-05-05T22:23:11.371Z,29.98
2023-05-05T22:25:38.367Z,23.90
2023-05-05T22:28:05.277Z,21.02
2023-05-05T22:30:32.314Z,23.85
2023-05-05T22:32:59.124Z,21.77
2023-05-05T22:35:26.067Z,23.13
2023-05-05T22:37:53.159Z,22.98
2023-05-05T22:40:20.183Z,24.17
2023-05-05T22:42:47.088Z,21.95
2023-05-05T22:45:14.170Z,22.80
2023-05-05T22:47:41.094Z,22.45
2023-05-05T22:50:08.981Z,21.58
2023-05-05T22:52:36.512Z,23.27
2023-05-05T22:55:03.753Z,25.25
2023-05-05T22:57:30.771Z,28.48
2023-05-05T22:59:57.692Z,28.52
2023-05-05T23:02:26.802Z,25.70
2023-05-05T23:04:54.029Z,26.33
2023-05-05T23:07:21.140Z,26.25
2023-05-05T23:09:48.216Z,22.95
2023-05-05T23:12:15.219Z,26.42
2023-05-05T23:14:42.102Z,27.27
2023-05-05T23:17:09.197Z,32.00
2023-05-05T23:19:36.487Z,27.75
2023-05-05T23:22:04.320Z,26.10
2023-05-05T23:24:31.189Z,25.80
2023-05-05T23:26:59.873Z,25.83
2023-05-05T23:29:26.663Z,29.13
2023-05-05T23:31:53.703Z,26.13
2023-05-05T23:34:20.495Z,26.20
2023-05-05T23:36:47.408Z,32.67
2023-05-05T23:39:14.266Z,27.42
2023-05-05T23:41:41.341Z,28.10
2023-05-05T23:44:08.119Z,26.30
2023-05-05T23:46:35.022Z,27.30
2023-05-05T23:49:01.963Z,27.92
2023-05-05T23:51:28.849Z,31.15
2023-05-05T23:53:57.432Z,29.40
2023-05-05T23:56:24.547Z,31.15
2023-05-05T23:58:52.602Z,32.35
